createdAt,value
2023-02-22T00:02:12.731Z,100480.80
2023-02-22T00:04:42.518Z,100481.62
2023-02-22T00:07:11.010Z,100483.42
2023-02-22T00:09:39.499Z,100479.88
2023-02-22T00:12:09.573Z,100486.79
2023-02-22T00:14:39.780Z,100483.37
2023-02-22T00:17:08.620Z,100488.84
2023-02-22T00:19:37.938Z,100491.56
2023-02-22T00:22:06.410Z,100497.08
2023-02-22T00:24:35.551Z,100492.80
2023-02-22T00:27:04.117Z,100494.37
2023-02-22T00:29:34.193Z,100494.48
2023-02-22T00:32:02.829Z,100497.89
2023-02-22T00:34:31.334Z,100501.04
2023-02-22T00:37:03.071Z,100499.80
2023-02-22T00:39:31.549Z,100501.19
2023-02-22T00:41:59.931Z,100502.67
2023-02-22T00:44:28.503Z,100508.42
2023-02-22T00:46:57.059Z,100511.29
2023-02-22T00:49:25.866Z,100516.42
2023-02-22T00:51:54.576Z,100517.27
2023-02-22T00:54:23.064Z,100517.92
2023-02-22T00:56:51.741Z,100518.45
2023-02-22T00:59:20.916Z,100522.71
2023-02-22T01:01:49.449Z,100528.79
2023-02-22T01:04:18.251Z,100527.83
2023-02-22T01:06:46.775Z,100529.83
2023-02-22T01:09:18.257Z,100541.05
2023-02-22T01:11:47.004Z,100542.77
2023-02-22T01:14:15.581Z,100543.68
2023-02-22T01:16:44.218Z,100548.85
2023-02-22T01:19:13.179Z,100551.12
2023-02-22T01:21:41.892Z,100555.52
2023-02-22T01:24:11.147Z,100561.79
2023-02-22T01:26:41.721Z,100562.88
2023-02-22T01:29:14.919Z,100568.86
2023-02-22T01:31:53.967Z,100570.89
2023-02-22T01:34:25.531Z,100570.48
2023-02-22T01:36:53.988Z,100576.88
2023-02-22T01:39:24.101Z,100578.92
2023-02-22T01:41:53.298Z,100577.00
2023-02-22T01:44:32.780Z,100578.10
2023-02-22T01:47:05.276Z,100579.19
2023-02-22T01:49:38.549Z,100575.69
2023-02-22T01:52:12.408Z,100579.65
2023-02-22T01:54:44.264Z,100580.13
2023-02-22T01:57:18.726Z,100577.98
2023-02-22T01:59:50.573Z,100581.42
2023-02-22T02:02:21.031Z,100581.02
2023-02-22T02:04:56.061Z,100584.09
2023-02-22T02:07:29.484Z,100583.96
2023-02-22T02:10:04.037Z,100585.26
2023-02-22T02:12:35.578Z,100585.23
2023-02-22T02:15:21.905Z,100591.97
2023-02-22T02:17:52.304Z,100594.05
2023-02-22T02:20:26.903Z,100595.50
2023-02-22T02:23:00.020Z,100600.52
2023-02-22T02:26:12.021Z,100600.40
2023-02-22T02:29:05.870Z,100602.26
2023-02-22T02:32:08.242Z,100604.49
2023-02-22T02:34:43.677Z,100606.81
2023-02-22T02:37:19.508Z,100607.30
2023-02-22T02:39:56.482Z,100615.40
2023-02-22T02:42:29.219Z,100614.44
2023-02-22T02:45:04.948Z,100617.30
2023-02-22T02:47:37.590Z,100620.40
2023-02-22T02:50:09.167Z,100621.99
2023-02-22T02:52:40.786Z,100623.56
2023-02-22T02:55:11.255Z,100624.23
2023-02-22T02:57:39.960Z,100630.21
2023-02-22T03:00:21.872Z,100628.37
2023-02-22T03:03:05.461Z,100629.77
2023-02-22T03:05:54.785Z,100629.82
2023-02-22T03:08:31.037Z,100632.91
2023-02-22T03:11:14.498Z,100636.98
2023-02-22T03:13:51.737Z,100637.98
2023-02-22T03:16:26.564Z,100641.12
2023-02-22T03:18:58.835Z,100643.46
2023-02-22T03:21:33.808Z,100646.81
2023-02-22T03:24:12.949Z,100648.46
2023-02-22T03:26:47.032Z,100648.47
2023-02-22T03:29:15.779Z,100649.98
2023-02-22T03:31:49.543Z,100652.86
2023-02-22T03:34:32.941Z,100655.85
2023-02-22T03:37:06.878Z,100658.97
2023-02-22T03:39:38.632Z,100661.63
2023-02-22T03:42:11.496Z,100664.40
2023-02-22T03:44:43.540Z,100665.59
2023-02-22T03:47:14.934Z,100664.61
2023-02-22T03:49:47.733Z,100669.36
2023-02-22T03:52:16.884Z,100669.84
2023-02-22T03:54:50.283Z,100670.31
2023-02-22T03:57:24.460Z,100671.05
2023-02-22T03:59:53.828Z,100676.85
2023-02-22T04:02:23.212Z,100678.66
2023-02-22T04:04:52.041Z,100685.10
2023-02-22T04:07:21.216Z,100684.60
2023-02-22T04:09:49.933Z,100686.23
2023-02-22T04:12:34.545Z,100696.56
2023-02-22T04:15:07.978Z,100701.92
2023-02-22T04:17:38.638Z,100701.97
2023-02-22T04:20:09.510Z,100700.73
2023-02-22T04:22:38.293Z,100704.47
2023-02-22T04:25:08.009Z,100706.57
2023-02-22T04:27:39.394Z,100708.02
2023-02-22T04:30:10.656Z,100712.94
2023-02-22T04:32:41.385Z,100714.08
2023-02-22T04:35:10.388Z,100718.91
2023-02-22T04:37:43.427Z,100722.91
2023-02-22T04:40:12.529Z,100720.78
2023-02-22T04:42:43.683Z,100720.79
2023-02-22T04:45:12.760Z,100722.31
2023-02-22T04:47:41.308Z,100722.22
2023-02-22T04:50:12.595Z,100723.95
2023-02-22T04:52:41.590Z,100724.80
2023-02-22T04:55:11.536Z,100731.38
2023-02-22T04:57:40.318Z,100733.11
2023-02-22T05:00:11.336Z,100729.20
2023-02-22T05:02:40.452Z,100734.64
2023-02-22T05:05:09.316Z,100737.83
2023-02-22T05:07:37.767Z,100733.92
2023-02-22T05:10:07.208Z,100735.64
2023-02-22T05:12:36.989Z,100736.98
2023-02-22T05:15:07.749Z,100736.07
2023-02-22T05:17:38.686Z,100738.58
2023-02-22T05:20:10.254Z,100742.36
2023-02-22T05:22:39.168Z,100744.37
2023-02-22T05:25:09.381Z,100746.58
2023-02-22T05:27:38.109Z,100752.89
2023-02-22T05:30:08.876Z,100756.80
2023-02-22T05:32:38.754Z,100761.04
2023-02-22T05:35:08.163Z,100759.04
2023-02-22T05:37:39.154Z,100763.98
2023-02-22T05:40:09.646Z,100766.30
2023-02-22T05:42:38.098Z,100768.69
2023-02-22T05:45:13.707Z,100773.64
2023-02-22T05:47:42.345Z,100773.87
2023-02-22T05:50:11.337Z,100772.79
2023-02-22T05:52:40.090Z,100774.91
2023-02-22T05:55:10.272Z,100776.05
2023-02-22T05:57:39.063Z,100779.23
2023-02-22T06:00:11.516Z,100778.95
2023-02-22T06:02:40.718Z,100785.40
2023-02-22T06:05:09.913Z,100788.06
2023-02-22T06:07:38.801Z,100793.95
2023-02-22T06:10:09.685Z,100795.37
2023-02-22T06:12:38.169Z,100801.42
2023-02-22T06:15:07.929Z,100798.73
2023-02-22T06:17:36.899Z,100807.61
2023-02-22T06:20:07.495Z,100808.05
2023-02-22T06:22:37.310Z,100815.09
2023-02-22T06:25:07.246Z,100815.20
2023-02-22T06:27:37.320Z,100815.02
2023-02-22T06:30:13.262Z,100822.58
2023-02-22T06:32:42.300Z,100831.10
2023-02-22T06:35:10.693Z,100834.52
2023-02-22T06:37:40.259Z,100839.66
2023-02-22T06:40:10.803Z,100840.67
2023-02-22T06:42:39.733Z,100841.23
2023-02-22T06:45:09.782Z,100848.20
2023-02-22T06:47:40.495Z,100849.21
2023-02-22T06:50:19.316Z,100845.47
2023-02-22T06:52:50.140Z,100853.23
2023-02-22T06:55:24.395Z,100852.21
2023-02-22T06:57:53.294Z,100857.48
2023-02-22T07:00:24.323Z,100858.69
2023-02-22T07:02:53.481Z,100858.34
2023-02-22T07:05:24.339Z,100859.77
2023-02-22T07:07:55.325Z,100857.84
2023-02-22T07:10:26.817Z,100860.88
2023-02-22T07:12:55.401Z,100865.22
2023-02-22T07:15:25.349Z,100870.75
2023-02-22T07:17:54.050Z,100872.87
2023-02-22T07:20:24.568Z,100872.48
2023-02-22T07:22:53.274Z,100879.93
2023-02-22T07:25:23.513Z,100879.23
2023-02-22T07:27:52.451Z,100880.41
2023-02-22T07:30:24.789Z,100882.16
2023-02-22T07:32:54.279Z,100880.45
2023-02-22T07:35:36.470Z,100878.71
2023-02-22T07:38:07.406Z,100875.09
2023-02-22T07:40:40.995Z,100873.61
2023-02-22T07:43:16.107Z,100872.35
2023-02-22T07:45:47.194Z,100875.91
2023-02-22T07:48:17.739Z,100876.06
2023-02-22T07:50:46.498Z,100877.55
2023-02-22T07:53:17.947Z,100871.17
2023-02-22T07:55:50.497Z,100875.17
2023-02-22T07:58:21.952Z,100874.23
2023-02-22T08:00:50.377Z,100869.70
2023-02-22T08:03:21.199Z,100872.46
2023-02-22T08:05:52.411Z,100874.55
2023-02-22T08:08:21.207Z,100875.77
2023-02-22T08:10:50.831Z,100873.52
2023-02-22T08:13:19.965Z,100873.66
2023-02-22T08:15:50.444Z,100876.07
2023-02-22T08:18:19.898Z,100880.66
2023-02-22T08:20:50.683Z,100882.22
2023-02-22T08:23:21.956Z,100884.64
2023-02-22T08:25:50.489Z,100887.64
2023-02-22T08:28:23.583Z,100892.25
2023-02-22T08:30:56.492Z,100891.23
2023-02-22T08:33:26.375Z,100893.52
2023-02-22T08:35:56.328Z,100890.45
2023-02-22T08:38:29.056Z,100894.73
2023-02-22T08:40:57.939Z,100894.77
2023-02-22T08:43:27.855Z,100895.91
2023-02-22T08:45:57.817Z,100901.09
2023-02-22T08:48:34.906Z,100905.17
2023-02-22T08:51:07.904Z,100908.20
2023-02-22T08:53:36.522Z,100908.63
2023-02-22T08:56:07.210Z,100909.02
2023-02-22T08:58:35.791Z,100912.77
2023-02-22T09:01:07.543Z,100915.50
2023-02-22T09:03:42.776Z,100914.20
2023-02-22T09:06:12.578Z,100913.70
2023-02-22T09:08:41.650Z,100915.61
2023-02-22T09:11:10.039Z,100921.95
2023-02-22T09:13:38.811Z,100925.25
2023-02-22T09:16:08.308Z,100927.33
2023-02-22T09:18:44.088Z,100928.80
2023-02-22T09:21:17.767Z,100924.06
2023-02-22T09:23:54.214Z,100926.52
2023-02-22T09:26:24.335Z,100928.77
2023-02-22T09:28:53.433Z,100927.88
2023-02-22T09:31:23.742Z,100924.13
2023-02-22T09:33:53.083Z,100925.05
2023-02-22T09:36:24.585Z,100924.11
2023-02-22T09:38:58.441Z,100931.67
2023-02-22T09:41:34.003Z,100930.43
2023-02-22T09:44:18.006Z,100933.45
2023-02-22T09:46:58.718Z,100934.65
2023-02-22T09:49:32.180Z,100934.80
2023-02-22T09:52:01.455Z,100933.08
2023-02-22T09:54:34.102Z,100933.67
2023-02-22T09:57:05.605Z,100935.38
2023-02-22T09:59:39.426Z,100940.10
2023-02-22T10:02:19.977Z,100941.45
2023-02-22T10:04:52.799Z,100943.95
2023-02-22T10:07:25.549Z,100945.38
2023-02-22T10:09:55.933Z,100951.48
2023-02-22T10:12:36.541Z,100955.36
2023-02-22T10:15:46.909Z,100959.38
2023-02-22T10:18:59.417Z,100967.16
2023-02-22T10:21:45.618Z,100975.09
2023-02-22T10:24:26.417Z,100978.06
2023-02-22T10:26:56.464Z,100983.95
2023-02-22T10:29:29.919Z,100982.31
2023-02-22T10:32:00.121Z,100988.15
2023-02-22T10:34:32.789Z,100985.66
2023-02-22T10:37:13.856Z,100984.46
2023-02-22T10:39:46.102Z,100979.90
2023-02-22T10:42:30.915Z,100977.94
2023-02-22T10:45:00.487Z,100980.09
2023-02-22T10:47:32.458Z,100984.60
2023-02-22T10:50:01.444Z,100985.16
2023-02-22T10:52:34.171Z,100988.75
2023-02-22T10:55:15.602Z,100993.12
2023-02-22T10:58:01.093Z,100992.17
2023-02-22T11:00:48.329Z,100992.64
2023-02-22T11:03:26.203Z,100989.36
2023-02-22T11:05:55.464Z,100985.71
2023-02-22T11:08:30.292Z,100987.91
2023-02-22T11:11:02.876Z,100987.26
2023-02-22T11:13:39.562Z,100988.35
2023-02-22T11:16:36.021Z,100989.55
2023-02-22T11:19:17.582Z,100986.60
2023-02-22T11:22:26.697Z,100992.84
2023-02-22T11:25:07.027Z,100989.39
2023-02-22T11:27:39.420Z,100985.23
2023-02-22T11:30:26.160Z,100989.60
2023-02-22T11:32:58.968Z,100988.64
2023-02-22T11:35:57.857Z,100992.32
2023-02-22T11:38:28.618Z,100991.13
2023-02-22T11:41:37.557Z,100991.00
2023-02-22T11:44:23.615Z,100989.71
2023-02-22T11:47:02.988Z,100991.70
2023-02-22T11:49:39.822Z,100996.16
2023-02-22T11:52:25.051Z,100993.17
2023-02-22T11:55:41.287Z,100991.54
2023-02-22T11:58:33.840Z,100994.51
2023-02-22T12:01:11.687Z,100994.11
2023-02-22T12:04:02.531Z,100995.23
2023-02-22T12:06:44.455Z,100992.98
2023-02-22T12:09:21.928Z,100991.49
2023-02-22T12:12:04.146Z,100993.71
2023-02-22T12:14:41.370Z,100992.82
2023-02-22T12:17:22.905Z,100988.81
2023-02-22T12:19:52.983Z,100986.04
2023-02-22T12:22:25.192Z,100990.64
2023-02-22T12:25:09.484Z,100988.20
2023-02-22T12:27:45.717Z,100989.01
2023-02-22T12:30:24.421Z,100989.58
2023-02-22T12:32:58.454Z,100987.29
2023-02-22T12:35:28.637Z,100991.77
2023-02-22T12:38:05.119Z,100989.48
2023-02-22T12:40:37.737Z,100991.91
2023-02-22T12:43:12.925Z,100993.77
2023-02-22T12:45:45.121Z,100997.84
2023-02-22T12:48:33.287Z,100997.90
2023-02-22T12:51:08.209Z,101003.06
2023-02-22T12:53:40.137Z,101009.13
2023-02-22T12:56:19.141Z,101012.07
2023-02-22T12:58:54.199Z,101014.90
2023-02-22T13:01:25.472Z,101009.70
2023-02-22T13:04:03.805Z,101012.45
2023-02-22T13:06:56.375Z,101015.29
2023-02-22T13:09:59.050Z,101019.33
2023-02-22T13:12:35.919Z,101022.16
2023-02-22T13:15:16.470Z,101027.04
2023-02-22T13:18:01.274Z,101031.92
2023-02-22T13:20:41.105Z,101034.59
2023-02-22T13:23:20.742Z,101043.20
2023-02-22T13:26:02.184Z,101045.10
2023-02-22T13:28:37.052Z,101040.16
2023-02-22T13:31:25.181Z,101042.26
2023-02-22T13:34:12.518Z,101041.81
2023-02-22T13:36:53.960Z,101038.77
2023-02-22T13:39:40.899Z,101037.92
2023-02-22T13:42:26.360Z,101037.23
2023-02-22T13:45:36.866Z,101037.73
2023-02-22T13:48:38.873Z,101034.38
2023-02-22T13:51:14.678Z,101032.98
2023-02-22T13:53:57.240Z,101033.73
2023-02-22T13:56:26.237Z,101035.23
2023-02-22T13:58:58.605Z,101035.26
2023-02-22T14:01:46.364Z,101039.02
2023-02-22T14:04:39.973Z,101042.27
2023-02-22T14:07:56.519Z,101042.26
2023-02-22T14:10:46.719Z,101044.73
2023-02-22T14:13:16.545Z,101049.32
2023-02-22T14:16:24.097Z,101049.57
2023-02-22T14:19:05.820Z,101058.80
2023-02-22T14:21:35.340Z,101063.60
2023-02-22T14:24:13.069Z,101057.06
2023-02-22T14:26:44.373Z,101066.26
2023-02-22T14:29:17.868Z,101064.11
2023-02-22T14:32:02.370Z,101066.80
2023-02-22T14:34:53.310Z,101067.30
2023-02-22T14:37:25.374Z,101066.20
2023-02-22T14:40:01.631Z,101073.80
2023-02-22T14:42:33.766Z,101074.35
2023-02-22T14:45:11.664Z,101074.73
2023-02-22T14:47:48.852Z,101075.38
2023-02-22T14:50:22.609Z,101076.96
2023-02-22T14:52:59.991Z,101074.98
2023-02-22T14:55:31.377Z,101079.39
2023-02-22T14:58:05.578Z,101077.98
2023-02-22T15:00:41.323Z,101084.48
2023-02-22T15:03:28.825Z,101082.40
2023-02-22T15:06:21.806Z,101086.89
2023-02-22T15:09:06.635Z,101084.15
2023-02-22T15:11:35.217Z,101085.32
2023-02-22T15:14:25.237Z,101082.48
2023-02-22T15:16:57.721Z,101083.86
2023-02-22T15:19:28.356Z,101087.69
2023-02-22T15:22:01.128Z,101086.08
2023-02-22T15:24:32.949Z,101087.55
2023-02-22T15:27:06.383Z,101091.48
2023-02-22T15:29:38.510Z,101096.55
2023-02-22T15:32:20.558Z,101094.06
2023-02-22T15:34:49.159Z,101096.78
2023-02-22T15:37:24.687Z,101097.65
2023-02-22T15:39:58.795Z,101102.72
2023-02-22T15:42:29.997Z,101103.27
2023-02-22T15:44:58.661Z,101107.69
2023-02-22T15:47:32.880Z,101106.70
2023-02-22T15:50:22.726Z,101112.58
2023-02-22T15:52:59.881Z,101110.11
2023-02-22T15:55:30.762Z,101110.94
2023-02-22T15:58:02.378Z,101111.17
2023-02-22T16:00:36.267Z,101113.66
2023-02-22T16:03:04.345Z,101116.27
2023-02-22T16:05:39.661Z,101118.13
2023-02-22T16:08:15.747Z,101121.02
2023-02-22T16:10:53.730Z,101120.21
2023-02-22T16:13:31.449Z,101118.85
2023-02-22T16:16:03.189Z,101120.97
2023-02-22T16:18:35.663Z,101123.91
2023-02-22T16:21:06.910Z,101122.15
2023-02-22T16:23:45.621Z,101122.88
2023-02-22T16:26:28.508Z,101129.11
2023-02-22T16:28:59.700Z,101132.27
2023-02-22T16:31:33.997Z,101131.14
2023-02-22T16:34:04.846Z,101132.88
2023-02-22T16:36:41.867Z,101133.77
2023-02-22T16:39:19.088Z,101141.66
2023-02-22T16:41:47.601Z,101143.20
2023-02-22T16:44:16.823Z,101145.27
2023-02-22T16:46:46.515Z,101147.45
2023-02-22T16:49:15.065Z,101149.20
2023-02-22T16:51:46.921Z,101151.94
2023-02-22T16:54:20.947Z,101152.92
2023-02-22T16:56:48.705Z,101154.64
2023-02-22T16:59:17.716Z,101156.69
2023-02-22T17:01:46.564Z,101155.61
2023-02-22T17:04:17.553Z,101157.03
2023-02-22T17:06:46.111Z,101155.59
2023-02-22T17:09:15.283Z,101157.35
2023-02-22T17:11:44.304Z,101160.41
2023-02-22T17:14:21.674Z,101160.95
2023-02-22T17:16:52.890Z,101161.63
2023-02-22T17:19:27.059Z,101157.80
2023-02-22T17:21:56.335Z,101157.98
2023-02-22T17:24:28.528Z,101156.75
2023-02-22T17:26:59.915Z,101161.24
2023-02-22T17:29:31.438Z,101159.41
2023-02-22T17:32:03.832Z,101155.87
2023-02-22T17:34:42.897Z,101157.44
2023-02-22T17:37:12.658Z,101156.55
2023-02-22T17:39:44.208Z,101159.14
2023-02-22T17:42:18.837Z,101160.49
2023-02-22T17:44:51.551Z,101159.92
2023-02-22T17:47:24.367Z,101158.98
2023-02-22T17:50:02.112Z,101158.28
2023-02-22T17:52:30.783Z,101162.35
2023-02-22T17:55:00.302Z,101158.27
2023-02-22T17:57:29.698Z,101159.73
2023-02-22T18:00:14.250Z,101161.55
2023-02-22T18:02:49.713Z,101162.55
2023-02-22T18:05:19.423Z,101161.41
2023-02-22T18:07:51.168Z,101161.89
2023-02-22T18:10:20.679Z,101160.46
2023-02-22T18:12:57.386Z,101164.27
2023-02-22T18:15:27.731Z,101162.52
2023-02-22T18:17:56.392Z,101167.05
2023-02-22T18:20:30.714Z,101170.01
2023-02-22T18:22:59.697Z,101172.60
2023-02-22T18:25:28.101Z,101175.73
2023-02-22T18:27:56.463Z,101177.89
2023-02-22T18:30:24.864Z,101183.73
2023-02-22T18:32:53.366Z,101182.75
2023-02-22T18:35:21.716Z,101183.64
2023-02-22T18:37:50.093Z,101184.95
2023-02-22T18:40:19.062Z,101182.02
2023-02-22T18:42:47.552Z,101184.45
2023-02-22T18:45:17.506Z,101185.25
2023-02-22T18:47:45.846Z,101187.78
2023-02-22T18:50:17.090Z,101185.77
2023-02-22T18:52:45.728Z,101185.44
2023-02-22T18:55:15.924Z,101183.14
2023-02-22T18:57:45.287Z,101182.21
2023-02-22T19:00:18.252Z,101182.27
2023-02-22T19:02:47.013Z,101182.77
2023-02-22T19:05:24.666Z,101187.27
2023-02-22T19:07:57.349Z,101184.93
2023-02-22T19:10:27.440Z,101182.52
2023-02-22T19:12:58.371Z,101181.65
2023-02-22T19:15:27.468Z,101173.63
2023-02-22T19:17:56.044Z,101172.64
2023-02-22T19:20:32.502Z,101170.52
2023-02-22T19:23:02.373Z,101175.29
2023-02-22T19:25:34.356Z,101176.00
2023-02-22T19:28:05.723Z,101176.05
2023-02-22T19:30:49.109Z,101168.53
2023-02-22T19:33:18.411Z,101167.71
2023-02-22T19:35:52.447Z,101172.94
2023-02-22T19:42:00.665Z,101180.17
2023-02-22T19:44:39.910Z,101180.69
2023-02-22T19:47:13.086Z,101186.92
2023-02-22T19:52:25.174Z,101191.91
2023-02-22T19:54:53.737Z,101194.05
2023-02-22T19:57:26.697Z,101191.96
2023-02-22T19:59:55.752Z,101193.64
2023-02-22T20:02:26.964Z,101195.26
2023-02-22T20:04:55.732Z,101194.47
2023-02-22T20:07:24.445Z,101197.50
2023-02-22T20:09:53.301Z,101199.86
2023-02-22T20:12:22.078Z,101201.03
2023-02-22T20:14:51.702Z,101194.58
2023-02-22T20:17:20.779Z,101192.50
2023-02-22T20:19:49.927Z,101194.38
2023-02-22T20:22:18.597Z,101196.73
2023-02-22T20:24:47.877Z,101201.14
2023-02-22T20:27:17.373Z,101198.98
2023-02-22T20:29:49.083Z,101201.60
2023-02-22T20:32:20.272Z,101206.39
2023-02-22T20:34:50.927Z,101203.88
2023-02-22T20:37:30.801Z,101202.70
2023-02-22T20:40:01.441Z,101202.84
2023-02-22T20:42:34.316Z,101200.78
2023-02-22T20:45:05.597Z,101204.45
2023-02-22T20:47:35.372Z,101210.02
2023-02-22T20:50:09.581Z,101212.17
2023-02-22T20:52:39.457Z,101207.13
2023-02-22T20:55:13.881Z,101204.71
2023-02-22T20:57:43.557Z,101208.65
2023-02-22T21:00:17.563Z,101207.52
2023-02-22T21:02:47.337Z,101208.33
2023-02-22T21:05:16.224Z,101209.63
2023-02-22T21:07:45.073Z,101207.96
2023-02-22T21:10:15.300Z,101203.20
2023-02-22T21:12:47.614Z,101203.77
2023-02-22T21:15:16.547Z,101203.55
2023-02-22T21:17:47.268Z,101200.34
2023-02-22T21:20:21.358Z,101195.93
2023-02-22T21:22:52.502Z,101191.48
2023-02-22T21:25:21.176Z,101192.58
2023-02-22T21:27:51.456Z,101196.54
2023-02-22T21:30:20.305Z,101198.23
2023-02-22T21:32:53.299Z,101196.61
2023-02-22T21:35:22.636Z,101202.55
2023-02-22T21:37:52.886Z,101208.24
2023-02-22T21:40:23.000Z,101205.95
2023-02-22T21:42:55.108Z,101207.19
2023-02-22T21:45:23.628Z,101205.11
2023-02-22T21:47:58.824Z,101208.72
2023-02-22T21:50:30.109Z,101209.82
2023-02-22T21:52:59.313Z,101210.48
2023-02-22T21:55:29.174Z,101210.28
2023-02-22T21:57:57.767Z,101210.27
2023-02-22T22:00:28.831Z,101207.02
2023-02-22T22:02:58.995Z,101205.90
2023-02-22T22:05:31.858Z,101206.71
2023-02-22T22:08:00.506Z,101208.05
2023-02-22T22:10:32.390Z,101208.43
2023-02-22T22:13:01.000Z,101205.31
2023-02-22T22:15:36.211Z,101206.90
2023-02-22T22:18:06.004Z,101207.26
2023-02-22T22:20:37.663Z,101201.00
2023-02-22T22:23:07.886Z,101203.31
2023-02-22T22:25:37.805Z,101204.38
2023-02-22T22:28:08.711Z,101209.85
2023-02-22T22:30:39.663Z,101211.56
2023-02-22T22:33:11.634Z,101214.58
2023-02-22T22:35:41.486Z,101216.48
2023-02-22T22:38:11.224Z,101215.21
2023-02-22T22:40:52.397Z,101214.52
2023-02-22T22:43:23.395Z,101210.10
2023-02-22T22:45:54.369Z,101211.59
2023-02-22T22:48:24.744Z,101214.93
2023-02-22T22:51:02.013Z,101214.47
2023-02-22T22:53:34.481Z,101215.63
2023-02-22T22:56:04.751Z,101216.65
2023-02-22T22:58:36.187Z,101215.52
2023-02-22T23:01:19.876Z,101217.33
2023-02-22T23:04:04.694Z,101214.32
2023-02-22T23:06:56.971Z,101214.30
2023-02-22T23:09:34.268Z,101211.96
2023-02-22T23:12:09.372Z,101212.33
2023-02-22T23:14:43.482Z,101213.27
2023-02-22T23:17:14.826Z,101215.33
2023-02-22T23:19:45.785Z,101214.98
2023-02-22T23:22:17.126Z,101219.39
2023-02-22T23:24:45.704Z,101219.56
2023-02-22T23:27:14.412Z,101219.64
2023-02-22T23:29:45.851Z,101217.36
2023-02-22T23:32:14.621Z,101215.38
2023-02-22T23:34:43.629Z,101217.95
2023-02-22T23:37:13.525Z,101215.23
2023-02-22T23:39:42.170Z,101217.02
2023-02-22T23:42:10.600Z,101212.35
2023-02-22T23:44:41.330Z,101211.61
2023-02-22T23:47:09.824Z,101206.00
2023-02-22T23:49:38.535Z,101207.66
2023-02-22T23:52:08.780Z,101201.67
2023-02-22T23:54:43.213Z,101198.84
2023-02-22T23:57:12.004Z,101197.69
2023-02-22T23:59:40.687Z,101195.95
